sensor_id;sensor_type;location;lat;lon;timestamp;P1;durP1;ratioP1;P2;durP2;ratioP2
39612;SDS011;25303;48.896;13.342;2023-07-30T00:01:00;1.63;;;1.45;;
39612;SDS011;25303;48.896;13.342;2023-07-30T00:03:43;2.67;;;1.80;;
39612;SDS011;25303;48.896;13.342;2023-07-30T00:06:27;3.50;;;1.80;;
39612;SDS011;25303;48.896;13.342;2023-07-30T00:09:10;3.05;;;1.85;;
39612;SDS011;25303;48.896;13.342;2023-07-30T00:11:53;2.85;;;2.00;;
39612;SDS011;25303;48.896;13.342;2023-07-30T00:14:36;3.05;;;1.80;;
39612;SDS011;25303;48.896;13.342;2023-07-30T00:17:19;2.33;;;1.90;;
39612;SDS011;25303;48.896;13.342;2023-07-30T00:20:02;2.08;;;1.85;;
39612;SDS011;25303;48.896;13.342;2023-07-30T00:22:48;2.78;;;1.85;;
39612;SDS011;25303;48.896;13.342;2023-07-30T00:25:31;3.50;;;1.80;;
39612;SDS011;25303;48.896;13.342;2023-07-30T00:28:13;2.25;;;1.80;;
39612;SDS011;25303;48.896;13.342;2023-07-30T00:30:56;2.22;;;1.83;;
39612;SDS011;25303;48.896;13.342;2023-07-30T00:33:39;2.22;;;1.77;;
39612;SDS011;25303;48.896;13.342;2023-07-30T00:36:22;2.13;;;1.40;;
39612;SDS011;25303;48.896;13.342;2023-07-30T00:39:07;2.00;;;1.60;;
39612;SDS011;25303;48.896;13.342;2023-07-30T00:41:52;2.25;;;1.67;;
39612;SDS011;25303;48.896;13.342;2023-07-30T00:44:35;2.70;;;1.52;;
39612;SDS011;25303;48.896;13.342;2023-07-30T00:47:18;2.70;;;1.73;;
39612;SDS011;25303;48.896;13.342;2023-07-30T00:50:01;1.73;;;1.23;;
39612;SDS011;25303;48.896;13.342;2023-07-30T00:52:44;1.55;;;1.35;;
39612;SDS011;25303;48.896;13.342;2023-07-30T00:55:29;2.90;;;1.60;;
39612;SDS011;25303;48.896;13.342;2023-07-30T00:58:12;3.22;;;1.90;;
39612;SDS011;25303;48.896;13.342;2023-07-30T01:00:55;2.50;;;1.70;;
39612;SDS011;25303;48.896;13.342;2023-07-30T01:03:39;1.63;;;1.35;;
39612;SDS011;25303;48.896;13.342;2023-07-30T01:06:22;2.55;;;1.83;;
39612;SDS011;25303;48.896;13.342;2023-07-30T01:09:05;1.95;;;1.70;;
39612;SDS011;25303;48.896;13.342;2023-07-30T01:11:49;2.58;;;1.40;;
39612;SDS011;25303;48.896;13.342;2023-07-30T01:14:33;2.45;;;1.60;;
39612;SDS011;25303;48.896;13.342;2023-07-30T01:17:19;2.03;;;1.58;;
39612;SDS011;25303;48.896;13.342;2023-07-30T01:20:04;2.10;;;1.50;;
39612;SDS011;25303;48.896;13.342;2023-07-30T01:22:49;2.17;;;1.58;;
39612;SDS011;25303;48.896;13.342;2023-07-30T01:25:33;2.65;;;1.83;;
39612;SDS011;25303;48.896;13.342;2023-07-30T01:28:19;3.53;;;1.50;;
39612;SDS011;25303;48.896;13.342;2023-07-30T01:31:02;2.05;;;1.38;;
39612;SDS011;25303;48.896;13.342;2023-07-30T01:33:48;2.55;;;1.50;;
39612;SDS011;25303;48.896;13.342;2023-07-30T01:36:34;2.63;;;1.98;;
39612;SDS011;25303;48.896;13.342;2023-07-30T01:42:04;3.55;;;1.60;;
39612;SDS011;25303;48.896;13.342;2023-07-30T01:44:47;2.30;;;1.70;;
39612;SDS011;25303;48.896;13.342;2023-07-30T01:47:30;3.10;;;1.70;;
39612;SDS011;25303;48.896;13.342;2023-07-30T01:50:13;2.10;;;1.70;;
39612;SDS011;25303;48.896;13.342;2023-07-30T01:52:56;2.90;;;2.03;;
39612;SDS011;25303;48.896;13.342;2023-07-30T01:55:41;2.67;;;2.00;;
39612;SDS011;25303;48.896;13.342;2023-07-30T01:58:27;3.13;;;2.15;;
39612;SDS011;25303;48.896;13.342;2023-07-30T02:01:10;2.47;;;1.98;;
39612;SDS011;25303;48.896;13.342;2023-07-30T02:03:53;2.42;;;1.80;;
39612;SDS011;25303;48.896;13.342;2023-07-30T02:06:37;1.83;;;1.55;;
39612;SDS011;25303;48.896;13.342;2023-07-30T02:09:20;2.25;;;1.60;;
39612;SDS011;25303;48.896;13.342;2023-07-30T02:12:05;3.45;;;1.90;;
39612;SDS011;25303;48.896;13.342;2023-07-30T02:14:48;1.85;;;1.60;;
39612;SDS011;25303;48.896;13.342;2023-07-30T02:17:31;2.08;;;1.45;;
39612;SDS011;25303;48.896;13.342;2023-07-30T02:20:14;2.08;;;1.85;;
39612;SDS011;25303;48.896;13.342;2023-07-30T02:22:57;3.08;;;2.40;;
39612;SDS011;25303;48.896;13.342;2023-07-30T02:25:40;2.92;;;1.95;;
39612;SDS011;25303;48.896;13.342;2023-07-30T02:28:25;2.70;;;1.98;;
39612;SDS011;25303;48.896;13.342;2023-07-30T02:31:08;2.63;;;1.80;;
39612;SDS011;25303;48.896;13.342;2023-07-30T02:33:50;2.28;;;1.65;;
39612;SDS011;25303;48.896;13.342;2023-07-30T02:36:33;2.50;;;1.75;;
39612;SDS011;25303;48.896;13.342;2023-07-30T02:39:16;2.65;;;1.65;;
39612;SDS011;25303;48.896;13.342;2023-07-30T02:41:59;1.90;;;1.50;;
39612;SDS011;25303;48.896;13.342;2023-07-30T02:44:44;2.15;;;1.55;;
39612;SDS011;25303;48.896;13.342;2023-07-30T02:47:27;1.90;;;1.38;;
39612;SDS011;25303;48.896;13.342;2023-07-30T02:50:10;3.92;;;2.03;;
39612;SDS011;25303;48.896;13.342;2023-07-30T02:52:53;2.75;;;2.10;;
39612;SDS011;25303;48.896;13.342;2023-07-30T02:55:36;2.80;;;1.80;;
39612;SDS011;25303;48.896;13.342;2023-07-30T02:58:18;3.17;;;2.10;;
39612;SDS011;25303;48.896;13.342;2023-07-30T03:01:06;2.05;;;1.52;;
39612;SDS011;25303;48.896;13.342;2023-07-30T03:03:51;2.20;;;1.42;;
39612;SDS011;25303;48.896;13.342;2023-07-30T03:06:34;3.20;;;2.38;;
39612;SDS011;25303;48.896;13.342;2023-07-30T03:09:17;2.75;;;1.92;;
39612;SDS011;25303;48.896;13.342;2023-07-30T03:12:00;2.30;;;1.65;;
39612;SDS011;25303;48.896;13.342;2023-07-30T03:14:44;2.25;;;1.92;;
39612;SDS011;25303;48.896;13.342;2023-07-30T03:17:28;3.78;;;1.80;;
39612;SDS011;25303;48.896;13.342;2023-07-30T03:20:11;1.60;;;1.17;;
39612;SDS011;25303;48.896;13.342;2023-07-30T03:22:54;6.70;;;2.72;;
39612;SDS011;25303;48.896;13.342;2023-07-30T03:25:37;4.05;;;1.55;;
39612;SDS011;25303;48.896;13.342;2023-07-30T03:28:21;2.08;;;0.80;;
39612;SDS011;25303;48.896;13.342;2023-07-30T03:31:04;1.17;;;0.82;;
39612;SDS011;25303;48.896;13.342;2023-07-30T03:33:48;0.88;;;0.50;;
39612;SDS011;25303;48.896;13.342;2023-07-30T03:36:31;1.33;;;0.60;;
39612;SDS011;25303;48.896;13.342;2023-07-30T03:39:14;0.70;;;0.50;;
39612;SDS011;25303;48.896;13.342;2023-07-30T03:41:57;1.08;;;0.50;;
39612;SDS011;25303;48.896;13.342;2023-07-30T03:44:40;1.38;;;0.55;;
39612;SDS011;25303;48.896;13.342;2023-07-30T03:47:23;0.77;;;0.50;;
39612;SDS011;25303;48.896;13.342;2023-07-30T03:50:08;0.30;;;0.30;;
39612;SDS011;25303;48.896;13.342;2023-07-30T03:52:51;0.60;;;0.40;;
39612;SDS011;25303;48.896;13.342;2023-07-30T03:55:34;1.15;;;0.28;;
39612;SDS011;25303;48.896;13.342;2023-07-30T03:58:17;0.45;;;0.30;;
39612;SDS011;25303;48.896;13.342;2023-07-30T04:01:00;0.20;;;0.20;;
39612;SDS011;25303;48.896;13.342;2023-07-30T04:03:43;0.40;;;0.30;;
39612;SDS011;25303;48.896;13.342;2023-07-30T04:06:28;0.60;;;0.30;;
39612;SDS011;25303;48.896;13.342;2023-07-30T04:09:11;0.77;;;0.50;;
39612;SDS011;25303;48.896;13.342;2023-07-30T04:11:54;0.55;;;0.40;;
39612;SDS011;25303;48.896;13.342;2023-07-30T04:14:37;0.57;;;0.30;;
39612;SDS011;25303;48.896;13.342;2023-07-30T04:17:21;0.32;;;0.20;;
39612;SDS011;25303;48.896;13.342;2023-07-30T04:20:04;0.40;;;0.20;;
39612;SDS011;25303;48.896;13.342;2023-07-30T04:22:49;0.73;;;0.30;;
39612;SDS011;25303;48.896;13.342;2023-07-30T04:25:32;0.35;;;0.20;;
39612;SDS011;25303;48.896;13.342;2023-07-30T04:28:15;2.17;;;0.20;;
39612;SDS011;25303;48.896;13.342;2023-07-30T04:30:59;1.17;;;0.52;;
39612;SDS011;25303;48.896;13.342;2023-07-30T04:33:42;1.65;;;0.30;;
39612;SDS011;25303;48.896;13.342;2023-07-30T04:36:25;0.82;;;0.20;;
39612;SDS011;25303;48.896;13.342;2023-07-30T04:39:10;0.10;;;0.10;;
39612;SDS011;25303;48.896;13.342;2023-07-30T04:41:54;0.55;;;0.30;;
39612;SDS011;25303;48.896;13.342;2023-07-30T04:44:37;0.63;;;0.22;;
39612;SDS011;25303;48.896;13.342;2023-07-30T04:47:25;0.68;;;0.20;;
39612;SDS011;25303;48.896;13.342;2023-07-30T04:50:09;1.20;;;0.40;;
39612;SDS011;25303;48.896;13.342;2023-07-30T04:52:52;0.63;;;0.30;;
39612;SDS011;25303;48.896;13.342;2023-07-30T04:55:36;0.90;;;0.30;;
39612;SDS011;25303;48.896;13.342;2023-07-30T04:58:19;0.65;;;0.30;;
39612;SDS011;25303;48.896;13.342;2023-07-30T05:01:02;0.30;;;0.30;;
39612;SDS011;25303;48.896;13.342;2023-07-30T05:03:45;1.17;;;0.22;;
39612;SDS011;25303;48.896;13.342;2023-07-30T05:06:28;4.57;;;0.40;;
39612;SDS011;25303;48.896;13.342;2023-07-30T05:09:11;0.47;;;0.32;;
39612;SDS011;25303;48.896;13.342;2023-07-30T05:11:55;0.90;;;0.25;;
39612;SDS011;25303;48.896;13.342;2023-07-30T05:14:38;1.15;;;0.20;;
39612;SDS011;25303;48.896;13.342;2023-07-30T05:17:21;0.40;;;0.20;;
39612;SDS011;25303;48.896;13.342;2023-07-30T05:20:05;0.47;;;0.25;;
39612;SDS011;25303;48.896;13.342;2023-07-30T05:22:49;0.30;;;0.30;;
39612;SDS011;25303;48.896;13.342;2023-07-30T05:25:32;0.20;;;0.20;;
39612;SDS011;25303;48.896;13.342;2023-07-30T05:28:16;0.77;;;0.20;;
39612;SDS011;25303;48.896;13.342;2023-07-30T05:30:59;0.30;;;0.15;;
39612;SDS011;25303;48.896;13.342;2023-07-30T05:33:42;0.75;;;0.40;;
39612;SDS011;25303;48.896;13.342;2023-07-30T05:36:25;0.95;;;0.40;;
39612;SDS011;25303;48.896;13.342;2023-07-30T05:39:08;0.73;;;0.30;;
39612;SDS011;25303;48.896;13.342;2023-07-30T05:41:51;0.75;;;0.40;;
39612;SDS011;25303;48.896;13.342;2023-07-30T05:44:35;1.20;;;0.45;;
39612;SDS011;25303;48.896;13.342;2023-07-30T05:47:18;1.90;;;0.60;;
39612;SDS011;25303;48.896;13.342;2023-07-30T05:50:01;5.55;;;0.70;;
39612;SDS011;25303;48.896;13.342;2023-07-30T05:52:45;0.70;;;0.70;;
39612;SDS011;25303;48.896;13.342;2023-07-30T05:55:28;0.70;;;0.60;;
39612;SDS011;25303;48.896;13.342;2023-07-30T05:58:11;0.60;;;0.60;;
39612;SDS011;25303;48.896;13.342;2023-07-30T06:00:55;0.80;;;0.77;;
39612;SDS011;25303;48.896;13.342;2023-07-30T06:03:38;1.20;;;1.00;;
39612;SDS011;25303;48.896;13.342;2023-07-30T06:06:22;2.15;;;1.13;;
39612;SDS011;25303;48.896;13.342;2023-07-30T06:09:08;4.53;;;1.42;;
39612;SDS011;25303;48.896;13.342;2023-07-30T06:11:52;1.48;;;1.08;;
39612;SDS011;25303;48.896;13.342;2023-07-30T06:14:35;1.48;;;1.13;;
39612;SDS011;25303;48.896;13.342;2023-07-30T06:17:20;1.40;;;1.20;;
39612;SDS011;25303;48.896;13.342;2023-07-30T06:20:03;1.90;;;1.33;;
39612;SDS011;25303;48.896;13.342;2023-07-30T06:22:47;1.85;;;1.60;;
39612;SDS011;25303;48.896;13.342;2023-07-30T06:25:29;1.50;;;1.40;;
39612;SDS011;25303;48.896;13.342;2023-07-30T06:28:13;2.00;;;1.37;;
39612;SDS011;25303;48.896;13.342;2023-07-30T06:30:59;1.27;;;1.10;;
39612;SDS011;25303;48.896;13.342;2023-07-30T06:33:44;1.60;;;0.98;;
39612;SDS011;25303;48.896;13.342;2023-07-30T06:36:27;3.60;;;1.58;;
39612;SDS011;25303;48.896;13.342;2023-07-30T06:39:09;1.55;;;1.20;;
39612;SDS011;25303;48.896;13.342;2023-07-30T06:41:52;1.73;;;1.60;;
39612;SDS011;25303;48.896;13.342;2023-07-30T06:44:36;3.33;;;1.90;;
39612;SDS011;25303;48.896;13.342;2023-07-30T06:47:19;2.13;;;1.30;;
39612;SDS011;25303;48.896;13.342;2023-07-30T06:50:03;1.00;;;0.85;;
39612;SDS011;25303;48.896;13.342;2023-07-30T06:52:49;1.25;;;0.90;;
39612;SDS011;25303;48.896;13.342;2023-07-30T06:55:32;1.15;;;1.00;;
39612;SDS011;25303;48.896;13.342;2023-07-30T06:58:15;1.08;;;0.93;;
39612;SDS011;25303;48.896;13.342;2023-07-30T07:00:59;1.58;;;1.30;;
39612;SDS011;25303;48.896;13.342;2023-07-30T07:03:42;1.30;;;1.10;;
39612;SDS011;25303;48.896;13.342;2023-07-30T07:06:26;1.45;;;1.20;;
39612;SDS011;25303;48.896;13.342;2023-07-30T07:09:09;2.33;;;1.27;;
39612;SDS011;25303;48.896;13.342;2023-07-30T07:11:53;1.63;;;1.23;;
39612;SDS011;25303;48.896;13.342;2023-07-30T07:14:35;1.83;;;1.40;;
39612;SDS011;25303;48.896;13.342;2023-07-30T07:17:18;1.90;;;1.50;;
39612;SDS011;25303;48.896;13.342;2023-07-30T07:20:01;1.65;;;1.20;;
39612;SDS011;25303;48.896;13.342;2023-07-30T07:25:30;1.13;;;0.90;;
39612;SDS011;25303;48.896;13.342;2023-07-30T07:28:13;1.10;;;0.73;;
39612;SDS011;25303;48.896;13.342;2023-07-30T07:30:56;1.10;;;1.00;;
39612;SDS011;25303;48.896;13.342;2023-07-30T07:33:39;1.50;;;1.00;;
39612;SDS011;25303;48.896;13.342;2023-07-30T07:36:22;1.40;;;1.08;;
39612;SDS011;25303;48.896;13.342;2023-07-30T07:39:07;1.23;;;1.10;;
39612;SDS011;25303;48.896;13.342;2023-07-30T07:41:50;1.48;;;1.02;;
39612;SDS011;25303;48.896;13.342;2023-07-30T07:44:33;1.23;;;1.00;;
39612;SDS011;25303;48.896;13.342;2023-07-30T07:47:16;1.20;;;1.00;;
39612;SDS011;25303;48.896;13.342;2023-07-30T07:49:59;1.67;;;1.08;;
39612;SDS011;25303;48.896;13.342;2023-07-30T07:52:42;4.30;;;1.40;;
39612;SDS011;25303;48.896;13.342;2023-07-30T07:55:26;1.60;;;1.30;;
39612;SDS011;25303;48.896;13.342;2023-07-30T07:58:09;1.17;;;1.00;;
39612;SDS011;25303;48.896;13.342;2023-07-30T08:00:53;1.40;;;1.10;;
39612;SDS011;25303;48.896;13.342;2023-07-30T08:03:37;1.45;;;1.30;;
39612;SDS011;25303;48.896;13.342;2023-07-30T08:06:20;1.88;;;1.35;;
39612;SDS011;25303;48.896;13.342;2023-07-30T08:09:03;1.85;;;1.17;;
39612;SDS011;25303;48.896;13.342;2023-07-30T08:11:47;2.55;;;1.00;;
39612;SDS011;25303;48.896;13.342;2023-07-30T08:14:30;1.40;;;1.10;;
39612;SDS011;25303;48.896;13.342;2023-07-30T08:17:13;1.40;;;1.17;;
39612;SDS011;25303;48.896;13.342;2023-07-30T08:19:56;1.13;;;1.00;;
39612;SDS011;25303;48.896;13.342;2023-07-30T08:22:39;1.65;;;1.10;;
39612;SDS011;25303;48.896;13.342;2023-07-30T08:25:22;1.38;;;1.10;;
39612;SDS011;25303;48.896;13.342;2023-07-30T08:28:06;1.55;;;1.40;;
39612;SDS011;25303;48.896;13.342;2023-07-30T08:30:50;1.30;;;1.20;;
39612;SDS011;25303;48.896;13.342;2023-07-30T08:33:33;1.70;;;1.10;;
39612;SDS011;25303;48.896;13.342;2023-07-30T08:36:16;1.70;;;1.08;;
39612;SDS011;25303;48.896;13.342;2023-07-30T08:39:01;1.02;;;0.90;;
39612;SDS011;25303;48.896;13.342;2023-07-30T08:41:45;1.48;;;1.17;;
39612;SDS011;25303;48.896;13.342;2023-07-30T08:44:30;1.50;;;1.20;;
39612;SDS011;25303;48.896;13.342;2023-07-30T08:47:13;1.30;;;1.20;;
39612;SDS011;25303;48.896;13.342;2023-07-30T08:49:56;2.50;;;1.40;;
39612;SDS011;25303;48.896;13.342;2023-07-30T08:52:39;1.52;;;1.00;;
39612;SDS011;25303;48.896;13.342;2023-07-30T08:55:23;1.30;;;1.10;;
39612;SDS011;25303;48.896;13.342;2023-07-30T08:58:08;1.20;;;1.08;;
39612;SDS011;25303;48.896;13.342;2023-07-30T09:03:38;1.27;;;0.90;;
39612;SDS011;25303;48.896;13.342;2023-07-30T09:06:22;1.52;;;1.10;;
39612;SDS011;25303;48.896;13.342;2023-07-30T09:09:05;2.00;;;1.10;;
39612;SDS011;25303;48.896;13.342;2023-07-30T09:11:51;1.50;;;1.20;;
39612;SDS011;25303;48.896;13.342;2023-07-30T09:14:35;1.30;;;1.20;;
39612;SDS011;25303;48.896;13.342;2023-07-30T09:17:19;1.85;;;1.30;;
39612;SDS011;25303;48.896;13.342;2023-07-30T09:20:02;1.48;;;0.95;;
39612;SDS011;25303;48.896;13.342;2023-07-30T09:22:46;1.75;;;0.98;;
39612;SDS011;25303;48.896;13.342;2023-07-30T09:28:14;1.80;;;0.90;;
39612;SDS011;25303;48.896;13.342;2023-07-30T09:30:59;3.10;;;1.20;;
39612;SDS011;25303;48.896;13.342;2023-07-30T09:34:02;1.33;;;1.13;;
39612;SDS011;25303;48.896;13.342;2023-07-30T09:36:45;1.60;;;1.20;;
39612;SDS011;25303;48.896;13.342;2023-07-30T09:39:32;1.77;;;1.40;;
39612;SDS011;25303;48.896;13.342;2023-07-30T09:42:15;2.55;;;1.65;;
39612;SDS011;25303;48.896;13.342;2023-07-30T09:44:58;4.18;;;1.45;;
39612;SDS011;25303;48.896;13.342;2023-07-30T09:47:45;1.73;;;1.33;;
39612;SDS011;25303;48.896;13.342;2023-07-30T09:50:30;1.70;;;1.33;;
39612;SDS011;25303;48.896;13.342;2023-07-30T09:55:59;1.80;;;1.55;;
39612;SDS011;25303;48.896;13.342;2023-07-30T09:58:42;2.97;;;1.80;;
39612;SDS011;25303;48.896;13.342;2023-07-30T10:01:25;1.70;;;1.60;;
39612;SDS011;25303;48.896;13.342;2023-07-30T10:04:11;2.55;;;1.80;;
39612;SDS011;25303;48.896;13.342;2023-07-30T10:06:57;1.83;;;1.63;;
39612;SDS011;25303;48.896;13.342;2023-07-30T10:09:43;1.63;;;1.52;;
39612;SDS011;25303;48.896;13.342;2023-07-30T10:12:31;2.53;;;1.20;;
39612;SDS011;25303;48.896;13.342;2023-07-30T10:15:17;1.38;;;1.20;;
39612;SDS011;25303;48.896;13.342;2023-07-30T10:18:02;1.73;;;1.10;;
39612;SDS011;25303;48.896;13.342;2023-07-30T10:20:51;1.10;;;1.00;;
39612;SDS011;25303;48.896;13.342;2023-07-30T10:23:46;0.90;;;0.80;;
39612;SDS011;25303;48.896;13.342;2023-07-30T10:26:33;1.00;;;0.90;;
39612;SDS011;25303;48.896;13.342;2023-07-30T10:29:19;1.52;;;1.10;;
39612;SDS011;25303;48.896;13.342;2023-07-30T10:32:04;1.42;;;0.93;;
39612;SDS011;25303;48.896;13.342;2023-07-30T10:34:48;1.25;;;0.98;;
39612;SDS011;25303;48.896;13.342;2023-07-30T10:37:31;1.10;;;1.00;;
39612;SDS011;25303;48.896;13.342;2023-07-30T10:40:18;1.83;;;1.10;;
39612;SDS011;25303;48.896;13.342;2023-07-30T10:43:01;1.00;;;0.77;;
39612;SDS011;25303;48.896;13.342;2023-07-30T10:45:48;1.17;;;1.00;;
39612;SDS011;25303;48.896;13.342;2023-07-30T10:48:32;2.20;;;1.42;;
39612;SDS011;25303;48.896;13.342;2023-07-30T10:51:16;1.55;;;1.27;;
39612;SDS011;25303;48.896;13.342;2023-07-30T10:54:01;1.50;;;1.10;;
39612;SDS011;25303;48.896;13.342;2023-07-30T10:56:50;1.20;;;1.10;;
39612;SDS011;25303;48.896;13.342;2023-07-30T10:59:34;1.55;;;0.90;;
39612;SDS011;25303;48.896;13.342;2023-07-30T11:02:18;1.00;;;0.90;;
39612;SDS011;25303;48.896;13.342;2023-07-30T11:05:10;1.55;;;1.20;;
39612;SDS011;25303;48.896;13.342;2023-07-30T11:07:54;1.70;;;1.15;;
39612;SDS011;25303;48.896;13.342;2023-07-30T11:10:41;1.27;;;1.08;;
39612;SDS011;25303;48.896;13.342;2023-07-30T11:13:26;1.20;;;0.90;;
39612;SDS011;25303;48.896;13.342;2023-07-30T11:16:10;1.08;;;0.98;;
39612;SDS011;25303;48.896;13.342;2023-07-30T11:18:53;3.20;;;1.20;;
39612;SDS011;25303;48.896;13.342;2023-07-30T11:21:36;1.70;;;1.30;;
39612;SDS011;25303;48.896;13.342;2023-07-30T11:24:33;1.98;;;1.00;;
39612;SDS011;25303;48.896;13.342;2023-07-30T11:27:16;1.20;;;1.10;;
39612;SDS011;25303;48.896;13.342;2023-07-30T11:30:00;1.25;;;1.15;;
39612;SDS011;25303;48.896;13.342;2023-07-30T11:32:44;1.85;;;1.20;;
39612;SDS011;25303;48.896;13.342;2023-07-30T11:35:28;2.43;;;1.33;;
39612;SDS011;25303;48.896;13.342;2023-07-30T11:38:11;1.27;;;1.13;;
39612;SDS011;25303;48.896;13.342;2023-07-30T11:40:55;1.57;;;1.47;;
39612;SDS011;25303;48.896;13.342;2023-07-30T11:43:42;1.60;;;1.20;;
39612;SDS011;25303;48.896;13.342;2023-07-30T11:46:27;2.05;;;1.50;;
39612;SDS011;25303;48.896;13.342;2023-07-30T11:49:13;1.30;;;1.20;;
39612;SDS011;25303;48.896;13.342;2023-07-30T11:52:05;1.80;;;1.27;;
39612;SDS011;25303;48.896;13.342;2023-07-30T11:54:59;1.75;;;1.40;;
39612;SDS011;25303;48.896;13.342;2023-07-30T11:57:42;1.88;;;1.30;;
39612;SDS011;25303;48.896;13.342;2023-07-30T12:00:25;1.67;;;1.40;;
39612;SDS011;25303;48.896;13.342;2023-07-30T12:03:10;2.33;;;1.55;;
39612;SDS011;25303;48.896;13.342;2023-07-30T12:05:54;1.52;;;1.40;;
39612;SDS011;25303;48.896;13.342;2023-07-30T12:08:37;2.13;;;1.50;;
39612;SDS011;25303;48.896;13.342;2023-07-30T12:11:21;2.10;;;1.20;;
39612;SDS011;25303;48.896;13.342;2023-07-30T12:14:04;1.33;;;1.23;;
39612;SDS011;25303;48.896;13.342;2023-07-30T12:16:47;2.10;;;1.20;;
39612;SDS011;25303;48.896;13.342;2023-07-30T12:19:31;1.70;;;1.10;;
39612;SDS011;25303;48.896;13.342;2023-07-30T12:22:14;0.93;;;0.90;;
39612;SDS011;25303;48.896;13.342;2023-07-30T12:24:57;1.65;;;1.10;;
39612;SDS011;25303;48.896;13.342;2023-07-30T12:27:40;1.00;;;0.90;;
39612;SDS011;25303;48.896;13.342;2023-07-30T12:30:23;2.33;;;1.05;;
39612;SDS011;25303;48.896;13.342;2023-07-30T12:33:07;1.35;;;1.02;;
39612;SDS011;25303;48.896;13.342;2023-07-30T12:35:52;1.10;;;1.00;;
39612;SDS011;25303;48.896;13.342;2023-07-30T12:38:34;1.90;;;1.20;;
39612;SDS011;25303;48.896;13.342;2023-07-30T12:41:17;0.77;;;0.77;;
39612;SDS011;25303;48.896;13.342;2023-07-30T12:44:06;1.42;;;1.00;;
39612;SDS011;25303;48.896;13.342;2023-07-30T12:46:51;1.20;;;0.90;;
39612;SDS011;25303;48.896;13.342;2023-07-30T12:49:34;0.88;;;0.77;;
39612;SDS011;25303;48.896;13.342;2023-07-30T12:52:18;1.10;;;0.80;;
39612;SDS011;25303;48.896;13.342;2023-07-30T12:55:01;1.10;;;0.82;;
39612;SDS011;25303;48.896;13.342;2023-07-30T12:57:45;0.85;;;0.80;;
39612;SDS011;25303;48.896;13.342;2023-07-30T13:00:28;0.80;;;0.70;;
39612;SDS011;25303;48.896;13.342;2023-07-30T13:03:11;0.65;;;0.65;;
39612;SDS011;25303;48.896;13.342;2023-07-30T13:05:54;0.85;;;0.80;;
39612;SDS011;25303;48.896;13.342;2023-07-30T13:08:39;0.90;;;0.70;;
39612;SDS011;25303;48.896;13.342;2023-07-30T13:11:22;0.70;;;0.60;;
39612;SDS011;25303;48.896;13.342;2023-07-30T13:14:05;0.77;;;0.70;;
39612;SDS011;25303;48.896;13.342;2023-07-30T13:16:48;0.52;;;0.52;;
39612;SDS011;25303;48.896;13.342;2023-07-30T13:19:31;0.70;;;0.70;;
39612;SDS011;25303;48.896;13.342;2023-07-30T13:22:16;0.60;;;0.50;;
39612;SDS011;25303;48.896;13.342;2023-07-30T13:25:00;0.63;;;0.57;;
39612;SDS011;25303;48.896;13.342;2023-07-30T13:27:43;0.85;;;0.75;;
39612;SDS011;25303;48.896;13.342;2023-07-30T13:30:26;1.60;;;1.20;;
39612;SDS011;25303;48.896;13.342;2023-07-30T13:33:09;0.63;;;0.63;;
39612;SDS011;25303;48.896;13.342;2023-07-30T13:35:52;0.60;;;0.52;;
39612;SDS011;25303;48.896;13.342;2023-07-30T13:38:35;0.70;;;0.60;;
39612;SDS011;25303;48.896;13.342;2023-07-30T13:41:21;0.93;;;0.70;;
39612;SDS011;25303;48.896;13.342;2023-07-30T13:44:04;0.98;;;0.80;;
39612;SDS011;25303;48.896;13.342;2023-07-30T13:46:47;1.73;;;1.27;;
39612;SDS011;25303;48.896;13.342;2023-07-30T13:49:30;1.65;;;0.95;;
39612;SDS011;25303;48.896;13.342;2023-07-30T13:52:13;1.70;;;0.77;;
39612;SDS011;25303;48.896;13.342;2023-07-30T13:54:56;1.38;;;0.80;;
39612;SDS011;25303;48.896;13.342;2023-07-30T13:57:40;1.75;;;0.73;;
39612;SDS011;25303;48.896;13.342;2023-07-30T14:00:24;2.65;;;0.80;;
39612;SDS011;25303;48.896;13.342;2023-07-30T14:03:07;0.93;;;0.80;;
39612;SDS011;25303;48.896;13.342;2023-07-30T14:05:51;1.13;;;0.60;;
39612;SDS011;25303;48.896;13.342;2023-07-30T14:08:34;0.90;;;0.70;;
39612;SDS011;25303;48.896;13.342;2023-07-30T14:11:17;1.05;;;0.60;;
39612;SDS011;25303;48.896;13.342;2023-07-30T14:14:01;1.95;;;0.65;;
39612;SDS011;25303;48.896;13.342;2023-07-30T14:16:44;1.27;;;0.80;;
39612;SDS011;25303;48.896;13.342;2023-07-30T14:19:28;1.52;;;0.70;;
39612;SDS011;25303;48.896;13.342;2023-07-30T14:22:11;3.20;;;0.85;;
39612;SDS011;25303;48.896;13.342;2023-07-30T14:24:54;1.15;;;0.80;;
39612;SDS011;25303;48.896;13.342;2023-07-30T14:27:38;1.20;;;0.95;;
39612;SDS011;25303;48.896;13.342;2023-07-30T14:30:22;1.42;;;0.90;;
39612;SDS011;25303;48.896;13.342;2023-07-30T14:33:05;1.25;;;0.70;;
39612;SDS011;25303;48.896;13.342;2023-07-30T14:35:49;0.60;;;0.60;;
39612;SDS011;25303;48.896;13.342;2023-07-30T14:38:32;1.02;;;0.68;;
39612;SDS011;25303;48.896;13.342;2023-07-30T14:41:16;1.17;;;0.60;;
39612;SDS011;25303;48.896;13.342;2023-07-30T14:43:59;1.10;;;0.57;;
39612;SDS011;25303;48.896;13.342;2023-07-30T14:46:43;0.88;;;0.50;;
39612;SDS011;25303;48.896;13.342;2023-07-30T14:49:26;0.60;;;0.50;;
39612;SDS011;25303;48.896;13.342;2023-07-30T14:52:09;1.05;;;0.70;;
39612;SDS011;25303;48.896;13.342;2023-07-30T14:54:52;0.93;;;0.50;;
39612;SDS011;25303;48.896;13.342;2023-07-30T14:57:35;1.92;;;0.80;;
39612;SDS011;25303;48.896;13.342;2023-07-30T15:00:18;0.80;;;0.70;;
39612;SDS011;25303;48.896;13.342;2023-07-30T15:03:03;0.90;;;0.70;;
39612;SDS011;25303;48.896;13.342;2023-07-30T15:05:46;1.67;;;0.68;;
39612;SDS011;25303;48.896;13.342;2023-07-30T15:08:29;1.35;;;0.90;;
39612;SDS011;25303;48.896;13.342;2023-07-30T15:11:14;0.93;;;0.80;;
39612;SDS011;25303;48.896;13.342;2023-07-30T15:13:57;0.90;;;0.70;;
39612;SDS011;25303;48.896;13.342;2023-07-30T15:16:40;2.55;;;0.88;;
39612;SDS011;25303;48.896;13.342;2023-07-30T15:19:24;2.22;;;0.90;;
39612;SDS011;25303;48.896;13.342;2023-07-30T15:22:07;1.55;;;0.88;;
39612;SDS011;25303;48.896;13.342;2023-07-30T15:24:50;1.02;;;0.75;;
39612;SDS011;25303;48.896;13.342;2023-07-30T15:27:33;1.15;;;0.80;;
39612;SDS011;25303;48.896;13.342;2023-07-30T15:30:16;0.82;;;0.70;;
39612;SDS011;25303;48.896;13.342;2023-07-30T15:33:00;1.52;;;0.70;;
39612;SDS011;25303;48.896;13.342;2023-07-30T15:35:44;0.88;;;0.75;;
39612;SDS011;25303;48.896;13.342;2023-07-30T15:38:27;1.00;;;0.73;;
39612;SDS011;25303;48.896;13.342;2023-07-30T15:41:10;1.23;;;0.68;;
39612;SDS011;25303;48.896;13.342;2023-07-30T15:43:53;1.25;;;0.70;;
39612;SDS011;25303;48.896;13.342;2023-07-30T15:46:36;0.80;;;0.60;;
39612;SDS011;25303;48.896;13.342;2023-07-30T15:49:20;1.38;;;0.90;;
39612;SDS011;25303;48.896;13.342;2023-07-30T15:52:05;1.50;;;1.20;;
39612;SDS011;25303;48.896;13.342;2023-07-30T15:54:48;1.88;;;1.33;;
39612;SDS011;25303;48.896;13.342;2023-07-30T15:57:31;2.83;;;1.30;;
39612;SDS011;25303;48.896;13.342;2023-07-30T16:00:14;3.13;;;1.30;;
39612;SDS011;25303;48.896;13.342;2023-07-30T16:02:57;1.77;;;1.20;;
39612;SDS011;25303;48.896;13.342;2023-07-30T16:05:45;1.67;;;1.10;;
39612;SDS011;25303;48.896;13.342;2023-07-30T16:08:31;2.03;;;1.17;;
39612;SDS011;25303;48.896;13.342;2023-07-30T16:11:14;4.05;;;2.90;;
39612;SDS011;25303;48.896;13.342;2023-07-30T16:13:58;9.95;;;7.20;;
39612;SDS011;25303;48.896;13.342;2023-07-30T16:16:43;9.95;;;6.55;;
39612;SDS011;25303;48.896;13.342;2023-07-30T16:19:26;4.97;;;3.00;;
39612;SDS011;25303;48.896;13.342;2023-07-30T16:22:09;9.25;;;4.65;;
39612;SDS011;25303;48.896;13.342;2023-07-30T16:24:54;7.35;;;4.20;;